sensor_id;sensor_type;location;lat;lon;timestamp;P1;P2;P0
47711;PMS7003;57457;51.634;5.886;2023-04-06T00:11:32;16.69;15.81;7.09
47711;PMS7003;57457;51.634;5.886;2023-04-06T00:24:52;15.85;16.58;7.53
47711;PMS7003;57457;51.634;5.886;2023-04-06T00:38:13;15.13;16.58;7.42
47711;PMS7003;57457;51.634;5.886;2023-04-06T00:51:33;19.69;16.69;7.75
47711;PMS7003;57457;51.634;5.886;2023-04-06T01:04:54;20.17;18.54;8.4
47711;PMS7003;57457;51.634;5.886;2023-04-06T01:18:16;15.97;16.69;7.42
47711;PMS7003;57457;51.634;5.886;2023-04-06T01:31:36;15.85;16.9;7.75
47711;PMS7003;57457;51.634;5.886;2023-04-06T01:44:55;19.33;18.54;7.53
47711;PMS7003;57457;51.634;5.886;2023-04-06T01:58:17;16.33;17.01;7.97
47711;PMS7003;57457;51.634;5.886;2023-04-06T02:11:38;18.85;18.1;7.86
47711;PMS7003;57457;51.634;5.886;2023-04-06T02:38:19;17.77;18.54;8.18
47711;PMS7003;57457;51.634;5.886;2023-04-06T02:51:41;20.77;18.32;7.86
47711;PMS7003;57457;51.634;5.886;2023-04-06T03:05:01;18.49;16.47;8.18
47711;PMS7003;57457;51.634;5.886;2023-04-06T03:18:22;16.69;17.01;8.08
47711;PMS7003;57457;51.634;5.886;2023-04-06T03:31:42;18.13;18.76;8.4
47711;PMS7003;57457;51.634;5.886;2023-04-06T03:45:03;21.73;20.28;9.49
47711;PMS7003;57457;51.634;5.886;2023-04-06T03:58:25;22.45;19.85;9.17
47711;PMS7003;57457;51.634;5.886;2023-04-06T04:11:46;18.01;18.54;8.4
47711;PMS7003;57457;51.634;5.886;2023-04-06T04:25:06;24.49;20.17;10.15
47711;PMS7003;57457;51.634;5.886;2023-04-06T04:38:27;21.73;20.17;9.06
47711;PMS7003;57457;51.634;5.886;2023-04-06T04:51:47;21.97;21.59;10.36
47711;PMS7003;57457;51.634;5.886;2023-04-06T05:05:07;25.21;21.59;10.47
47711;PMS7003;57457;51.634;5.886;2023-04-06T05:18:27;25.33;21.81;10.47
47711;PMS7003;57457;51.634;5.886;2023-04-06T05:31:48;26.65;23.12;11.56
47711;PMS7003;57457;51.634;5.886;2023-04-06T05:45:08;27.73;23.55;11.78
47711;PMS7003;57457;51.634;5.886;2023-04-06T05:58:29;28.33;23.01;10.8
47711;PMS7003;57457;51.634;5.886;2023-04-06T06:11:50;23.29;21.48;9.71
47711;PMS7003;57457;51.634;5.886;2023-04-06T06:25:12;23.05;20.28;9.17
47711;PMS7003;57457;51.634;5.886;2023-04-06T06:38:33;22.57;20.72;8.95
47711;PMS7003;57457;51.634;5.886;2023-04-06T06:51:53;21.25;20.5;8.84
47711;PMS7003;57457;51.634;5.886;2023-04-06T07:05:13;23.53;18.87;8.4
47711;PMS7003;57457;51.634;5.886;2023-04-06T07:18:34;20.65;19.3;8.95
47711;PMS7003;57457;51.634;5.886;2023-04-06T07:31:56;19.45;18.54;7.86
47711;PMS7003;57457;51.634;5.886;2023-04-06T07:45:15;19.81;17.45;8.18
47711;PMS7003;57457;51.634;5.886;2023-04-06T07:58:35;20.41;17.89;7.97
47711;PMS7003;57457;51.634;5.886;2023-04-06T08:11:55;19.21;18.76;8.4
47711;PMS7003;57457;51.634;5.886;2023-04-06T08:25:16;16.57;17.34;7.86
47711;PMS7003;57457;51.634;5.886;2023-04-06T08:38:36;18.37;18.65;8.29
47711;PMS7003;57457;51.634;5.886;2023-04-06T08:51:57;16.57;17.45;7.86
47711;PMS7003;57457;51.634;5.886;2023-04-06T09:05:17;20.29;18.76;7.97
47711;PMS7003;57457;51.634;5.886;2023-04-06T09:18:39;18.25;17.01;7.97
47711;PMS7003;57457;51.634;5.886;2023-04-06T09:32:00;17.29;17.56;7.75
47711;PMS7003;57457;51.634;5.886;2023-04-06T09:45:20;18.37;17.12;7.42
47711;PMS7003;57457;51.634;5.886;2023-04-06T09:58:41;17.77;17.34;7.97
47711;PMS7003;57457;51.634;5.886;2023-04-06T10:12:01;18.85;18.76;8.51
47711;PMS7003;57457;51.634;5.886;2023-04-06T10:25:22;17.41;18.1;7.97
47711;PMS7003;57457;51.634;5.886;2023-04-06T10:38:44;16.57;17.01;7.75
47711;PMS7003;57457;51.634;5.886;2023-04-06T10:52:03;18.97;18.21;8.29
47711;PMS7003;57457;51.634;5.886;2023-04-06T11:05:25;12.61;14.51;6.55
47711;PMS7003;57457;51.634;5.886;2023-04-06T11:18:46;11.53;11.56;5.24
47711;PMS7003;57457;51.634;5.886;2023-04-06T11:32:06;11.65;12.11;5.02
47711;PMS7003;57457;51.634;5.886;2023-04-06T11:45:27;16.09;16.03;6.66
47711;PMS7003;57457;51.634;5.886;2023-04-06T11:58:47;8.41;9.17;3.93
47711;PMS7003;57457;51.634;5.886;2023-04-06T12:12:09;9.13;9.6;4.59
47711;PMS7003;57457;51.634;5.886;2023-04-06T12:25:29;5.65;8.4;4.04
47711;PMS7003;57457;51.634;5.886;2023-04-06T12:38:50;7.33;9.93;4.15
47711;PMS7003;57457;51.634;5.886;2023-04-06T12:52:11;10.81;10.47;4.7
47711;PMS7003;57457;51.634;5.886;2023-04-06T13:05:33;8.29;10.69;4.91
47711;PMS7003;57457;51.634;5.886;2023-04-06T13:18:53;12.01;12.11;5.02
47711;PMS7003;57457;51.634;5.886;2023-04-06T13:32:12;27.61;23.66;10.8
47711;PMS7003;57457;51.634;5.886;2023-04-06T13:45:34;14.41;14.4;6.11
47711;PMS7003;57457;51.634;5.886;2023-04-06T13:58:55;9.85;11.67;4.8
47711;PMS7003;57457;51.634;5.886;2023-04-06T14:12:16;8.89;10.8;4.48
47711;PMS7003;57457;51.634;5.886;2023-04-06T14:25:36;10.57;10.04;4.59
47711;PMS7003;57457;51.634;5.886;2023-04-06T14:38:58;9.73;11.24;5.24
47711;PMS7003;57457;51.634;5.886;2023-04-06T15:05:40;12.13;13.2;5.57
47711;PMS7003;57457;51.634;5.886;2023-04-06T15:19:02;13.69;15.16;6.55
47711;PMS7003;57457;51.634;5.886;2023-04-06T15:32:23;14.77;16.25;6.44
47711;PMS7003;57457;51.634;5.886;2023-04-06T15:45:45;14.17;15.81;6.77
47711;PMS7003;57457;51.634;5.886;2023-04-06T15:59:04;15.37;14.72;6.11
47711;PMS7003;57457;51.634;5.886;2023-04-06T16:12:26;12.97;14.51;6.55
47711;PMS7003;57457;51.634;5.886;2023-04-06T16:25:47;14.89;14.62;6.33
47711;PMS7003;57457;51.634;5.886;2023-04-06T16:39:08;14.17;14.51;6.22
47711;PMS7003;57457;51.634;5.886;2023-04-06T16:52:30;12.13;13.96;6.22
47711;PMS7003;57457;51.634;5.886;2023-04-06T17:05:51;14.41;16.03;7.2
47711;PMS7003;57457;51.634;5.886;2023-04-06T17:19:12;13.21;12.98;6.44
47711;PMS7003;57457;51.634;5.886;2023-04-06T17:32:32;9.97;12.33;5.9
47711;PMS7003;57457;51.634;5.886;2023-04-06T17:45:52;11.53;13.31;6.11
47711;PMS7003;57457;51.634;5.886;2023-04-06T17:59:12;10.93;12.76;6.33
47711;PMS7003;57457;51.634;5.886;2023-04-06T18:12:33;9.97;12.0;5.79
47711;PMS7003;57457;51.634;5.886;2023-04-06T18:25:55;9.13;11.35;5.68
47711;PMS7003;57457;51.634;5.886;2023-04-06T18:39:16;8.77;11.13;5.57
47711;PMS7003;57457;51.634;5.886;2023-04-06T18:52:38;8.05;10.36;5.24
47711;PMS7003;57457;51.634;5.886;2023-04-06T19:05:59;10.21;12.54;6.44
47711;PMS7003;57457;51.634;5.886;2023-04-06T19:19:19;11.77;13.31;6.66
47711;PMS7003;57457;51.634;5.886;2023-04-06T19:32:39;17.41;16.58;8.29
47711;PMS7003;57457;51.634;5.886;2023-04-06T19:46:00;14.17;15.49;7.31
47711;PMS7003;57457;51.634;5.886;2023-04-06T19:59:21;16.21;17.67;8.29
47711;PMS7003;57457;51.634;5.886;2023-04-06T20:12:43;21.37;19.85;9.82
47711;PMS7003;57457;51.634;5.886;2023-04-06T20:26:04;22.33;20.94;10.36
47711;PMS7003;57457;51.634;5.886;2023-04-06T20:39:25;20.65;19.96;10.47
47711;PMS7003;57457;51.634;5.886;2023-04-06T20:52:45;21.85;20.61;10.69
47711;PMS7003;57457;51.634;5.886;2023-04-06T21:06:07;24.49;22.14;10.91
47711;PMS7003;57457;51.634;5.886;2023-04-06T21:19:26;23.53;21.37;10.58
47711;PMS7003;57457;51.634;5.886;2023-04-06T21:32:46;20.53;20.07;10.36
47711;PMS7003;57457;51.634;5.886;2023-04-06T21:46:06;23.77;22.03;11.13
47711;PMS7003;57457;51.634;5.886;2023-04-06T21:59:27;25.45;22.14;10.58
47711;PMS7003;57457;51.634;5.886;2023-04-06T22:12:47;24.37;22.25;10.04
47711;PMS7003;57457;51.634;5.886;2023-04-06T22:39:27;25.69;22.57;9.6
47711;PMS7003;57457;51.634;5.886;2023-04-06T22:52:48;25.81;23.12;9.6
47711;PMS7003;57457;51.634;5.886;2023-04-06T23:06:10;26.77;22.35;8.4
47711;PMS7003;57457;51.634;5.886;2023-04-06T23:19:31;23.77;19.96;8.08
47711;PMS7003;57457;51.634;5.886;2023-04-06T23:32:52;21.13;18.98;8.08
47711;PMS7003;57457;51.634;5.886;2023-04-06T23:46:12;22.21;17.78;6.77
47711;PMS7003;57457;51.634;5.886;2023-04-06T23:59:32;19.57;16.14;6.11
